Kapaa, HI

6:12 PM HST on April 20, 2015 (GMT -1000)
WAILUA HOMESTEADS | | Change Station
CLOSE
Current Station
Personal Weather Station
Location: Kapaa, HI
Elevation: 361 ft
Nearby Weather Stations
Active Advisory: High Surf Advisory

Elev 361 ft 22.07 °N, 159.36 °W | Updated 4 seconds ago

Overcast
Overcast
73.5 °F
Feels Like 74 °F
N
5.0
Wind Variable Wind from ESE
Gusts 11.0 mph

Today
High -- | Low -- °F
--% Chance of Precip.
Yesterday
High -- | Low -- °F
Precip. -- in
6:13 AM 6:59 PM
Waxing Crescent, 8% visible
Pressure 30.07 in
Visibility 10.0 miles
Clouds Few 2900 ft
Scattered Clouds 3600 ft
Overcast 4700 ft
Heat Index 74 °F
Dew Point 66 °F
Humidity 77%
Rainfall 0.00 in
Snow Depth Not available.
UV 0.0 out of 12
Pollen Not available.
Air Quality Not available.
Flu Activity Regional
METAR PHLI 210353Z 06015KT 10SM FEW029 SCT036 OVC047 24/17 A3008 RMK AO2 SLP183 T02440172

More Conditions Fewer Conditions

Pressure 30.07 in
Visibility 10.0 miles
Clouds Few 2900 ft
Scattered Clouds 3600 ft
Overcast 4700 ft
Heat Index 74 °F
Dew Point 66 °F
Humidity 77%
Rainfall 0.00 in
Snow Depth Not available.
UV 0.0 out of 12
Pollen Not available.
Air Quality Not available.
Flu Activity Regional
METAR PHLI 210353Z 06015KT 10SM FEW029 SCT036 OVC047 24/17 A3008 RMK AO2 SLP183 T02440172

More Conditions Fewer Conditions

10-Day Weather Forecast

Almanac

Astronomy

Apr. 20, 2015 Rise Set
Actual Time
Civil Twilight
Nautical Twilight
Astronomical Twilight
Moon
Length of Visible Light
Length of Day
Tomorrow will be .
, % of the Moon is Illuminated

Today's Extremes

State Highs State Lows

Community

WunderPhotos

Upload Photos

1,815,311 photos uploaded!

WunderBlogs® & News

Nearby

Air Quality

  Air Quality AQ Index Pollutant
Not available.

Snow Depth

Station Depth Elevation

Earthquake Activity

City Distance Mag. Time & Date
Minimum magnitude displayed is 2.5.

Coastal Water Temperatures

Place Temperature

Stations

Nearby Weather Stations

Station Location Temp. Windchill Dew Point Humidity Wind Precip. Elev Updated Type
                   
High Surf Advisory
Statement as of 3:00 PM HST on April 20, 2015

... High surf advisory remains in effect until 6 am HST
Wednesday...

A high surf advisory remains in effect until 6 am HST Wednesday.

* Surf... 6 to 10 feet along east facing shores.

* Timing... through early Wednesday.

* Impacts... moderate... expect strong breaking waves... shore
break... and strong longshore and rip currents making swimming
difficult and dangerous.

Precautionary/preparedness actions...

Beachgoers... swimmers... and surfers should heed all advice given
by ocean safety officials and exercise caution.